Time;durP1;ratioP1;P1;durP2;ratioP2;P2;SDS_P1;SDS_P2;PMS_P1;PMS_P2;Temp;Humidity;BMP_temperature;BMP_pressure;BME280_temperature;BME280_humidity;BME280_pressure;Samples;Min_cycle;Max_cycle;Signal;HPM_P1;HPM_P2
2023/05/08 06:53:09;;;;;;;15.05;13.65;;;12.10;99.90;;;;;;6259042;22;1229484;-70
2023/05/08 06:55:35;;;;;;;15.65;14.20;;;12.00;99.90;;;;;;6245328;23;20016;-73
2023/05/08 06:58:00;;;;;;;15.23;13.77;;;12.10;99.90;;;;;;6220149;23;20020;-73
2023/05/08 07:00:26;;;;;;;15.93;14.43;;;12.10;99.90;;;;;;6245356;23;20436;-73
2023/05/08 07:02:52;;;;;;;16.27;14.77;;;12.10;99.90;;;;;;6247368;22;20047;-73
2023/05/08 07:05:18;;;;;;;15.73;14.30;;;12.20;99.90;;;;;;6247262;23;20011;-73
2023/05/08 07:07:44;;;;;;;15.38;13.98;;;12.30;99.90;;;;;;6246515;22;20020;-73
2023/05/08 07:10:10;;;;;;;15.75;14.25;;;12.30;99.90;;;;;;6246984;22;20016;-73
2023/05/08 07:12:36;;;;;;;15.38;13.95;;;12.40;99.90;;;;;;6245329;23;20016;-73
2023/05/08 07:15:03;;;;;;;14.93;13.48;;;12.40;99.90;;;;;;6247154;23;20111;-73
2023/05/08 07:17:29;;;;;;;14.60;13.23;;;12.50;99.90;;;;;;6247095;22;20062;-73
2023/05/08 07:19:55;;;;;;;15.15;13.70;;;12.60;99.90;;;;;;6247132;22;20062;-73
2023/05/08 07:22:20;;;;;;;15.07;13.68;;;12.70;99.90;;;;;;6245650;23;20371;-73
2023/05/08 07:24:46;;;;;;;14.82;13.43;;;12.80;99.90;;;;;;6247518;23;20027;-73
2023/05/08 07:27:13;;;;;;;14.18;12.88;;;12.90;99.90;;;;;;6247098;23;20080;-73
2023/05/08 07:29:40;;;;;;;14.18;12.88;;;13.00;99.90;;;;;;6247066;22;20016;-73
2023/05/08 07:32:08;;;;;;;14.20;12.80;;;13.10;99.90;;;;;;6247050;22;20008;-72
2023/05/08 07:34:34;;;;;;;15.27;13.93;;;13.20;99.90;;;;;;6247028;22;20016;-73
2023/05/08 07:37:00;;;;;;;14.63;13.35;;;13.30;99.90;;;;;;6245090;23;20012;-73
2023/05/08 07:39:26;;;;;;;14.90;13.40;;;13.30;99.90;;;;;;6245027;23;20012;-73
2023/05/08 07:41:51;;;;;;;15.07;13.57;;;13.40;99.90;;;;;;6245073;23;20016;-73
2023/05/08 07:44:17;;;;;;;14.30;13.00;;;13.40;99.90;;;;;;6246782;23;20016;-72
2023/05/08 07:46:42;;;;;;;14.35;13.05;;;13.50;99.90;;;;;;6244946;23;20468;-73
2023/05/08 07:49:08;;;;;;;16.02;14.52;;;13.60;99.90;;;;;;6246910;22;20008;-73
2023/05/08 07:51:34;;;;;;;14.98;13.57;;;13.60;99.90;;;;;;6219846;23;20452;-73
2023/05/08 07:53:59;;;;;;;14.77;13.38;;;13.60;99.90;;;;;;6246511;23;20013;-72
2023/05/08 07:56:26;;;;;;;15.25;13.85;;;13.70;99.90;;;;;;6246355;23;20020;-73
2023/05/08 07:58:52;;;;;;;15.23;13.82;;;13.70;99.90;;;;;;6244929;23;20062;-72
2023/05/08 08:01:17;;;;;;;15.73;14.23;;;13.70;99.90;;;;;;6246291;23;20008;-72
2023/05/08 08:03:44;;;;;;;14.85;13.35;;;13.70;99.90;;;;;;6247354;23;20010;-73
2023/05/08 08:06:10;;;;;;;14.93;13.63;;;13.80;99.90;;;;;;6246691;22;20016;-73
2023/05/08 08:08:36;;;;;;;14.70;13.30;;;13.90;99.90;;;;;;6244818;23;20022;-73
2023/05/08 08:11:01;;;;;;;16.23;14.63;;;13.90;99.90;;;;;;6219408;23;20023;-73
2023/05/08 08:13:27;;;;;;;15.95;14.52;;;13.90;99.90;;;;;;6246374;22;20048;-73
2023/05/08 08:15:53;;;;;;;15.55;14.10;;;13.90;99.90;;;;;;6247188;23;20062;-73
2023/05/08 08:18:18;;;;;;;15.38;13.88;;;14.00;99.90;;;;;;6246559;23;20051;-72
2023/05/08 08:20:44;;;;;;;17.15;15.55;;;14.00;99.90;;;;;;6246465;23;20087;-73
2023/05/08 08:23:09;;;;;;;16.42;14.82;;;14.00;99.90;;;;;;6246608;23;20012;-73
2023/05/08 08:25:35;;;;;;;16.55;14.85;;;14.00;99.90;;;;;;6247384;23;20012;-73
2023/05/08 08:28:01;;;;;;;17.15;15.57;;;14.10;99.90;;;;;;6244661;23;20019;-73
2023/05/08 08:30:26;;;;;;;16.83;15.18;;;14.20;99.90;;;;;;6244579;23;20016;-73
2023/05/08 08:32:52;;;;;;;16.83;15.32;;;14.30;99.90;;;;;;6246107;23;20019;-73
2023/05/08 08:35:18;;;;;;;18.70;15.90;;;14.30;99.90;;;;;;6244506;23;20026;-73
2023/05/08 08:37:43;;;;;;;17.45;15.85;;;14.30;99.90;;;;;;6246071;23;20048;-73
2023/05/08 08:40:09;;;;;;;16.58;15.07;;;14.40;99.90;;;;;;6245957;23;20023;-73
2023/05/08 08:42:35;;;;;;;16.58;14.98;;;14.50;99.90;;;;;;6246449;22;20019;-73
2023/05/08 08:45:01;;;;;;;17.80;16.02;;;14.60;99.90;;;;;;6246339;23;20020;-74
2023/05/08 08:47:28;;;;;;;16.60;15.00;;;14.70;99.90;;;;;;6245551;23;20448;-73
2023/05/08 08:49:56;;;;;;;17.77;15.98;;;14.70;99.90;;;;;;6244579;23;20449;-73
2023/05/08 08:52:48;;;;;;;17.95;16.15;;;14.80;99.90;;;;;;6244540;23;20020;-73
2023/05/08 08:55:19;;;;;;;16.63;14.93;;;14.90;99.90;;;;;;6244325;23;20088;-72
2023/05/08 08:57:59;;;;;;;17.98;16.27;;;14.90;99.90;;;;;;6246152;22;20062;-73
2023/05/08 09:00:30;;;;;;;17.38;15.77;;;14.90;99.90;;;;;;6246544;22;20087;-73
2023/05/08 09:02:55;;;;;;;17.60;15.90;;;15.00;99.90;;;;;;6245546;23;20012;-73
2023/05/08 09:05:22;;;;;;;19.17;17.20;;;15.00;99.90;;;;;;6246292;23;20512;-72
2023/05/08 09:07:49;;;;;;;17.08;15.48;;;15.00;99.90;;;;;;6246174;22;20012;-73
2023/05/08 09:10:15;;;;;;;17.23;15.43;;;15.10;99.90;;;;;;6244604;23;20016;-72
2023/05/08 09:12:41;;;;;;;17.85;16.15;;;15.20;99.90;;;;;;6246378;23;20091;-73
2023/05/08 09:15:07;;;;;;;16.95;15.35;;;15.30;99.90;;;;;;6245976;22;20109;-72
2023/05/08 09:17:33;;;;;;;17.70;16.00;;;15.40;99.90;;;;;;6219089;23;20035;-72
2023/05/08 09:20:00;;;;;;;17.77;16.17;;;15.50;99.90;;;;;;6244358;23;20430;-73
2023/05/08 09:22:26;;;;;;;18.08;16.27;;;15.60;99.90;;;;;;6246324;22;20008;-73
2023/05/08 09:24:59;;;;;;;18.10;16.35;;;15.70;99.90;;;;;;6246199;23;20027;-73
2023/05/08 09:27:27;;;;;;;17.95;16.35;;;15.80;99.90;;;;;;6244274;23;20039;-73
2023/05/08 09:30:07;;;;;;;18.77;16.98;;;15.80;99.90;;;;;;6244306;23;20048;-73
2023/05/08 09:32:38;;;;;;;18.00;16.40;;;16.00;99.90;;;;;;6247481;22;20091;-73
2023/05/08 09:35:05;;;;;;;18.23;16.33;;;16.10;99.90;;;;;;6246280;23;20389;-73
2023/05/08 09:37:32;;;;;;;18.75;17.02;;;16.20;99.90;;;;;;6246158;23;20024;-73
2023/05/08 09:40:16;;;;;;;18.85;17.15;;;16.30;99.90;;;;;;6248182;22;20008;-73
2023/05/08 09:42:41;;;;;;;17.88;16.17;;;16.40;99.90;;;;;;6246167;23;20315;-73
2023/05/08 09:45:08;;;;;;;19.20;17.02;;;16.50;99.90;;;;;;6246052;23;20081;-73
2023/05/08 09:47:38;;;;;;;18.92;17.15;;;16.60;99.90;;;;;;6246141;23;20073;-73
2023/05/08 09:50:09;;;;;;;18.88;17.15;;;16.60;99.90;;;;;;6246150;23;20023;-73
2023/05/08 09:52:36;;;;;;;20.05;18.15;;;16.70;99.90;;;;;;6246672;23;20019;-73
2023/05/08 09:55:06;;;;;;;18.20;16.60;;;16.90;99.90;;;;;;6246224;23;20016;-72
2023/05/08 09:57:37;;;;;;;21.25;19.25;;;17.00;99.90;;;;;;6246239;23;20012;-72
2023/05/08 10:00:11;;;;;;;19.80;17.88;;;17.10;99.90;;;;;;6248134;22;20008;-73
2023/05/08 10:02:41;;;;;;;17.67;16.08;;;17.20;99.90;;;;;;6248098;22;20046;-72
2023/05/08 10:05:34;;;;;;;;;;;17.20;99.90;;;;;;6246461;23;20016;-72
2023/05/08 10:08:22;;;;;;;18.45;16.77;;;17.20;99.90;;;;;;6244126;22;19912;-73
2023/05/08 10:10:48;;;;;;;18.30;16.60;;;17.20;99.90;;;;;;6248116;22;20071;-72
2023/05/08 10:13:14;;;;;;;18.60;16.88;;;17.20;99.90;;;;;;6247895;23;20004;-73
2023/05/08 10:15:44;;;;;;;20.80;18.85;;;17.20;99.90;;;;;;6247576;23;20031;-73
2023/05/08 10:18:10;;;;;;;17.40;15.70;;;17.30;99.90;;;;;;6247329;23;20421;-73
2023/05/08 10:20:43;;;;;;;18.10;16.55;;;17.30;99.90;;;;;;6246083;23;20167;-72
2023/05/08 10:23:13;;;;;;;17.70;16.10;;;17.30;99.90;;;;;;6245953;23;20023;-72
2023/05/08 10:25:46;;;;;;;17.55;15.95;;;17.20;99.90;;;;;;6247493;22;20008;-72
2023/05/08 10:28:17;;;;;;;17.10;15.60;;;17.30;99.90;;;;;;6245953;23;20012;-72
2023/05/08 10:30:48;;;;;;;17.98;16.38;;;17.30;99.90;;;;;;6247859;22;20004;-72
2023/05/08 10:33:18;;;;;;;18.17;16.40;;;17.40;99.90;;;;;;6246015;23;20008;-73
2023/05/08 10:35:44;;;;;;;19.20;17.30;;;17.40;99.90;;;;;;6220646;23;20024;-73
2023/05/08 10:38:10;;;;;;;19.52;17.63;;;17.60;99.90;;;;;;6247513;23;20071;-73
2023/05/08 10:40:37;;;;;;;18.85;17.15;;;17.70;99.90;;;;;;6247842;22;20095;-73
2023/05/08 10:43:05;;;;;;;17.08;15.45;;;17.80;99.90;;;;;;6247615;22;20063;-73
2023/05/08 10:45:32;;;;;;;17.90;16.25;;;17.80;99.90;;;;;;6245772;23;20016;-73
2023/05/08 10:48:15;;;;;;;18.73;16.92;;;17.90;99.90;;;;;;6245731;23;20051;-72
2023/05/08 10:50:43;;;;;;;17.27;15.77;;;18.00;99.90;;;;;;6247672;22;20012;-72
2023/05/08 10:53:30;;;;;;;16.88;15.27;;;18.10;99.90;;;;;;6245396;23;20012;-71
2023/05/08 10:55:56;;;;;;;17.75;16.08;;;18.30;99.90;;;;;;6247608;22;20020;-72
2023/05/08 10:58:33;;;;;;;16.60;15.00;;;18.40;99.90;;;;;;6247413;23;20012;-72
2023/05/08 11:00:58;;;;;;;16.98;15.25;;;18.50;99.90;;;;;;6247397;22;20051;-72
2023/05/08 11:03:31;;;;;;;16.10;14.60;;;18.60;99.90;;;;;;6245881;23;20031;-71
2023/05/08 11:05:58;;;;;;;15.90;14.30;;;18.60;99.90;;;;;;6245433;23;20012;-73
2023/05/08 11:08:26;;;;;;;16.27;14.68;;;18.70;99.90;;;;;;6220240;23;20016;-73
2023/05/08 11:11:01;;;;;;;17.05;15.52;;;18.70;99.90;;;;;;6245396;23;20019;-72
2023/05/08 11:13:31;;;;;;;15.75;14.35;;;18.70;99.90;;;;;;6245334;23;20502;-72
2023/05/08 11:15:56;;;;;;;17.35;15.73;;;18.70;99.90;;;;;;6247309;22;20012;-73
2023/05/08 11:18:23;;;;;;;16.48;14.98;;;18.70;99.90;;;;;;6247247;23;20452;-73
2023/05/08 11:21:03;;;;;;;16.35;14.75;;;18.80;99.90;;;;;;6246946;22;20444;-72
2023/05/08 11:23:34;;;;;;;17.80;16.20;;;18.80;99.90;;;;;;6245286;23;20094;-73
2023/05/08 11:26:12;;;;;;;16.45;14.80;;;18.90;99.90;;;;;;6245469;23;20020;-72
2023/05/08 11:28:53;;;;;;;17.02;15.52;;;19.10;99.90;;;;;;6245666;23;20031;-72
2023/05/08 11:31:19;;;;;;;16.48;14.82;;;19.30;99.90;;;;;;6247099;22;20008;-74
2023/05/08 11:33:45;;;;;;;15.25;13.88;;;19.40;99.90;;;;;;6247076;23;20053;-74
2023/05/08 11:36:21;;;;;;;17.00;14.95;;;19.60;99.90;;;;;;6245028;23;20095;-71
2023/05/08 11:39:16;;;;;;;15.38;13.98;;;19.70;99.90;;;;;;6245057;23;20087;-74
2023/05/08 11:41:42;;;;;;;15.50;13.90;;;19.70;99.90;;;;;;6225968;23;20016;-72
2023/05/08 11:44:34;;;;;;;15.40;13.93;;;19.70;99.90;;;;;;6219698;23;20022;-73
2023/05/08 11:47:02;;;;;;;15.70;14.27;;;19.70;99.90;;;;;;6242779;22;20015;-73
2023/05/08 11:49:28;;;;;;;15.00;13.60;;;19.90;99.90;;;;;;6245091;23;20035;-72
2023/05/08 11:51:57;;;;;;;13.77;12.57;;;20.00;99.90;;;;;;6245087;23;20152;-72
2023/05/08 11:54:24;;;;;;;14.80;13.40;;;20.10;99.90;;;;;;6244928;23;20016;-72
2023/05/08 11:56:53;;;;;;;15.05;13.75;;;20.10;99.90;;;;;;6244963;23;20012;-72
2023/05/08 11:59:19;;;;;;;15.15;13.77;;;20.10;99.90;;;;;;6219579;23;20495;-72
2023/05/08 12:01:48;;;;;;;14.65;13.23;;;20.20;99.90;;;;;;6244912;23;20023;-72
2023/05/08 12:04:13;;;;;;;12.98;11.77;;;20.40;99.90;;;;;;6219582;23;20027;-72
2023/05/08 12:06:40;;;;;;;14.18;12.80;;;20.70;99.90;;;;;;6219625;23;20020;-72
2023/05/08 12:09:17;;;;;;;13.63;12.20;;;20.40;99.90;;;;;;6244826;23;20058;-72
2023/05/08 12:11:44;;;;;;;13.55;12.35;;;20.40;99.90;;;;;;6244756;23;20035;-72
2023/05/08 12:14:11;;;;;;;14.50;12.80;;;20.40;99.90;;;;;;6244799;23;20020;-72
2023/05/08 12:16:38;;;;;;;12.05;10.80;;;20.50;99.90;;;;;;6246335;22;20519;-72
2023/05/08 12:19:10;;;;;;;11.35;10.20;;;20.80;99.90;;;;;;6244751;23;20019;-73
2023/05/08 12:21:36;;;;;;;10.80;9.80;;;20.80;99.90;;;;;;6244841;23;20016;-72
2023/05/08 12:24:12;;;;;;;11.95;10.07;;;21.00;99.90;;;;;;6219407;23;20337;-73
2023/05/08 12:26:38;;;;;;;11.70;10.60;;;21.10;99.90;;;;;;6244676;23;20039;-72
2023/05/08 12:29:06;;;;;;;11.82;10.63;;;21.10;99.90;;;;;;6219495;23;20043;-73
2023/05/08 12:31:36;;;;;;;12.95;11.80;;;21.30;99.90;;;;;;6244827;23;20016;-73
2023/05/08 12:34:05;;;;;;;14.10;12.70;;;21.20;99.90;;;;;;6244677;23;20012;-73
2023/05/08 12:36:35;;;;;;;15.70;14.20;;;21.50;99.90;;;;;;6219521;23;20016;-72
2023/05/08 12:39:16;;;;;;;13.77;12.43;;;21.80;99.90;;;;;;6244825;23;20008;-73
2023/05/08 12:41:52;;;;;;;13.95;12.57;;;21.90;99.90;;;;;;6244867;23;20034;-73
2023/05/08 12:44:19;;;;;;;12.45;11.23;;;22.10;99.90;;;;;;6244621;23;20020;-73
2023/05/08 12:46:57;;;;;;;13.18;11.88;;;;;;;;;;6246576;22;20008;-73
2023/05/08 12:49:30;;;;;;;10.63;9.52;;;22.20;99.90;;;;;;6244612;23;20016;-73
2023/05/08 12:52:06;;;;;;;12.85;11.73;;;22.20;99.90;;;;;;6246463;22;20103;-73
2023/05/08 12:54:37;;;;;;;7.18;6.47;;;;;;;;;;6219155;23;20012;-72
2023/05/08 12:57:20;;;;;;;9.68;8.10;;;22.00;99.90;;;;;;6246467;22;20070;-73
2023/05/08 12:59:46;;;;;;;8.43;7.55;;;;;;;;;;6246538;22;20008;-72
2023/05/08 13:02:17;;;;;;;8.93;7.35;;;22.50;99.90;;;;;;6244475;23;20016;-73
2023/05/08 13:04:43;;;;;;;8.85;7.57;;;;;;;;;;6245904;22;20434;-72
2023/05/08 13:07:09;;;;;;;13.57;12.23;;;22.90;99.90;;;;;;6220602;23;20091;-72
2023/05/08 13:09:35;;;;;;;14.77;13.38;;;22.90;99.90;;;;;;6246629;23;20381;-73
2023/05/08 13:12:01;;;;;;;10.38;9.32;;;;;;;;;;6248451;22;20004;-73
2023/05/08 13:14:27;;;;;;;11.20;10.20;;;23.50;99.90;;;;;;6246982;23;20020;-73
2023/05/08 13:16:53;;;;;;;9.82;8.82;;;;;;;;;;6248342;23;20046;-72
2023/05/08 13:19:19;;;;;;;10.60;9.48;;;;;;;;;;6248358;22;20012;-72
2023/05/08 13:21:46;;;;;;;10.10;9.10;;;;;;;;;;6246477;23;20023;-73
2023/05/08 13:24:15;;;;;;;8.70;7.68;;;22.30;99.90;;;;;;6246368;23;20449;-73
2023/05/08 13:26:41;;;;;;;9.52;8.63;;;22.60;99.90;;;;;;6221220;23;20062;-73
2023/05/08 13:29:07;;;;;;;9.23;8.30;;;;;;;;;;6246709;23;20016;-74
2023/05/08 13:31:33;;;;;;;8.82;8.02;;;;;;;;;;6246333;23;20016;-73
2023/05/08 13:33:59;;;;;;;11.20;8.65;;;21.90;99.90;;;;;;6246281;23;20467;-73
2023/05/08 13:36:25;;;;;;;9.20;8.30;;;22.60;99.90;;;;;;6246284;23;20015;-72
2023/05/08 13:38:53;;;;;;;10.27;9.15;;;;;;;;;;6247827;22;20042;-73
2023/05/08 13:41:19;;;;;;;9.30;8.50;;;23.70;99.90;;;;;;6248084;22;20012;-73
2023/05/08 13:43:46;;;;;;;8.38;7.57;;;24.10;99.90;;;;;;6246252;23;20016;-73
2023/05/08 13:46:12;;;;;;;7.57;6.88;;;24.30;99.90;;;;;;6248019;22;20015;-73
2023/05/08 13:48:37;;;;;;;7.35;6.35;;;24.50;99.60;;;;;;6246156;23;20085;-73
2023/05/08 13:51:03;;;;;;;7.95;6.85;;;25.10;99.90;;;;;;6247660;23;20418;-73
2023/05/08 13:53:29;;;;;;;7.05;6.07;;;25.20;96.90;;;;;;6245893;23;20020;-73
2023/05/08 13:55:55;;;;;;;8.05;6.40;;;;;;;;;;6246103;23;20146;-73
